Marine Rouge — JG5115 — position and weather

sailwx.info

Track history (hours):
 
Tides and Currents Weather Stations Pressure Air Temp Water Temp Dewpoint Dewpoint Depression Visibility Wind Speed Wind Dir Waves Ship Positions

Marine Rouge

Last reported at 2017-Mar-30 11:33 UTC. Time now 2017-Mar-30 14:37 UTC.
Position N 35°28' E 139°42'.

Length 52 m; draft 2.8 m.

Type: Passenger vessel. MMSI: 431000518.

Date/timePositionNaut miles runAvg speedWind from/ knotsBaromVisibWave heightAir tempDewpointWater temp
2017-Mar-30 11:33N 35°28' E 139°42'3 3.0
2017-Mar-30 10:33N 35°27' E 139°39'1 0.5
2017-Mar-30 09:33N 35°27' E 139°39'0 0.0
2017-Mar-30 08:33N 35°27' E 139°39'1 0.5
2017-Mar-30 07:33N 35°27' E 139°39'1 0.5
2017-Mar-30 06:33N 35°27' E 139°39'0 0.1
2017-Mar-30 05:34N 35°27' E 139°39'0 0.3
2017-Mar-30 04:33N 35°27' E 139°39'0 0.4
2017-Mar-30 03:33N 35°27' E 139°39'1 0.5
2017-Mar-30 02:34N 35°27' E 139°39'0 0.0
2017-Mar-30 01:33N 35°27' E 139°39'0 0.0
2017-Mar-30 00:33N 35°27' E 139°39'1 0.0
2017-Mar-29 12:34N 35°27' E 139°39'0 0.5
2017-Mar-29 11:33N 35°28' E 139°40'1 0.7
2017-Mar-29 10:33N 35°27' E 139°39'1 0.5
2017-Mar-29 09:33N 35°27' E 139°39'0 0.0
2017-Mar-29 08:33N 35°27' E 139°39'1 0.5
2017-Mar-29 07:34N 35°27' E 139°39'1 0.5
2017-Mar-29 06:33N 35°27' E 139°39'0 0.1
2017-Mar-29 05:34N 35°27' E 139°39'0 0.1
2017-Mar-29 04:33N 35°27' E 139°39'1 0.5
2017-Mar-29 03:34N 35°27' E 139°39'1 0.5
2017-Mar-29 02:33N 35°27' E 139°39'0 0.0
2017-Mar-29 01:33N 35°27' E 139°39'0 0.0
2017-Mar-29 00:33N 35°27' E 139°39'1 0.1
2017-Mar-28 11:33N 35°28' E 139°40'1 1.0
2017-Mar-28 10:33N 35°27' E 139°39'1 0.6
2017-Mar-28 09:33N 35°27' E 139°39'0 0.0
2017-Mar-28 08:33N 35°27' E 139°39'3 2.9
2017-Mar-28 07:33N 35°28' E 139°42'3 2.9
2017-Mar-28 06:33N 35°27' E 139°39'0 0.1
2017-Mar-28 05:34N 35°27' E 139°39'0 0.1
2017-Mar-28 04:33N 35°27' E 139°39'1 0.5
2017-Mar-28 03:34N 35°27' E 139°39'1 0.5
2017-Mar-28 02:33N 35°27' E 139°39'0 0.0
2017-Mar-28 01:33N 35°27' E 139°39'0 0.0
2017-Mar-28 00:33N 35°27' E 139°39'0 0.0
2017-Mar-27 12:33N 35°27' E 139°39'2 1.7
2017-Mar-27 11:33N 35°28' E 139°40'1 1.3
2017-Mar-27 10:33N 35°27' E 139°39'1 0.7
2017-Mar-27 09:33N 35°27' E 139°39'0 0.0
2017-Mar-27 08:34N 35°27' E 139°39'3 2.9
2017-Mar-27 07:33N 35°28' E 139°42'3 2.9
2017-Mar-27 06:34N 35°27' E 139°39'0 0.0
2017-Mar-27 05:33N 35°27' E 139°39'0 0.0
2017-Mar-27 04:33N 35°27' E 139°39'2 2.2
2017-Mar-27 03:33N 35°27' E 139°42'2 2.2
2017-Mar-27 02:33N 35°27' E 139°39'0 0.0
2017-Mar-27 01:33N 35°27' E 139°39'0 0.0
2017-Mar-27 00:33N 35°27' E 139°39'0 0.0
2017-Mar-26 12:33N 35°27' E 139°39'0 0.4
2017-Mar-26 11:33N 35°27' E 139°39'1 0.6
2017-Mar-26 10:34N 35°27' E 139°39'1 0.5
2017-Mar-26 09:33N 35°27' E 139°39'0 0.0
2017-Mar-26 08:33N 35°27' E 139°39'1 0.6
2017-Mar-26 07:33N 35°27' E 139°39'1 0.6
2017-Mar-26 06:33N 35°27' E 139°39'0 0.1
2017-Mar-26 05:33N 35°27' E 139°39'0 0.1
2017-Mar-26 04:33N 35°27' E 139°39'1 0.5
2017-Mar-26 03:34N 35°27' E 139°39'1 0.5
2017-Mar-26 02:33N 35°27' E 139°39'0 0.0
2017-Mar-26 01:33N 35°27' E 139°39'0 0.0
2017-Mar-26 00:33N 35°27' E 139°39'1 0.0
2017-Mar-25 12:34N 35°27' E 139°39'1 0.5
2017-Mar-25 11:33N 35°28' E 139°39'1 0.5
2017-Mar-25 10:33N 35°27' E 139°39'1 0.5
2017-Mar-25 09:33N 35°27' E 139°39'1 1.3
2017-Mar-25 08:33N 35°28' E 139°40'1 1.1
2017-Mar-25 07:33N 35°27' E 139°39'1 0.5
2017-Mar-25 06:33N 35°27' E 139°39'0 0.1
2017-Mar-25 05:33N 35°27' E 139°39'0 0.0
2017-Mar-25 04:34N 35°27' E 139°39'0 0.4
2017-Mar-25 03:33N 35°27' E 139°39'1 0.5
2017-Mar-25 02:33N 35°27' E 139°39'1 1.0
2017-Mar-25 01:33N 35°28' E 139°39'1 1.0
2017-Mar-25 00:33N 35°27' E 139°39'1 0.1
2017-Mar-24 11:33N 35°28' E 139°39'1 1.3
2017-Mar-24 10:33N 35°27' E 139°40'1 1.1
2017-Mar-24 09:33N 35°27' E 139°39'0 0.0
2017-Mar-24 08:33N 35°27' E 139°39'3 2.8
2017-Mar-24 07:33N 35°28' E 139°42'3 2.7
2017-Mar-24 06:33N 35°27' E 139°39'0 0.2
2017-Mar-24 05:34N 35°27' E 139°39'0 0.2
2017-Mar-24 04:33N 35°27' E 139°39'1 1.0
2017-Mar-24 03:33N 35°27' E 139°40'1 1.0
2017-Mar-24 02:33N 35°27' E 139°39'0 0.0
2017-Mar-24 01:33N 35°27' E 139°39'0 0.0
2017-Mar-24 00:33N 35°27' E 139°39'1 0.0
2017-Mar-23 12:30N 35°27' E 139°39'1 1.1
2017-Mar-23 11:33N 35°28' E 139°40'1 1.0
2017-Mar-23 10:33N 35°27' E 139°39'1 0.6
2017-Mar-23 09:33N 35°27' E 139°39'0 0.0
2017-Mar-23 08:33N 35°27' E 139°39'1 0.5
2017-Mar-23 07:33N 35°27' E 139°39'1 0.5
2017-Mar-23 06:33N 35°27' E 139°39'0 0.1
2017-Mar-23 05:33N 35°27' E 139°39'0 0.1
2017-Mar-23 04:33N 35°27' E 139°39'1 0.5
2017-Mar-23 03:33N 35°27' E 139°39'1 0.5
2017-Mar-23 02:33N 35°27' E 139°39'0 0.0
2017-Mar-23 01:33N 35°27' E 139°39'0 0.0
2017-Mar-23 00:33N 35°27' E 139°39'1 0.0
2017-Mar-22 12:34N 35°27' E 139°39'0 0.4
2017-Mar-22 11:34N 35°28' E 139°39'1 0.6
2017-Mar-22 10:34N 35°27' E 139°39'1 0.5
2017-Mar-22 09:34N 35°27' E 139°39'0 0.3
2017-Mar-22 08:33N 35°27' E 139°39'0 0.3
2017-Mar-22 07:34N 35°27' E 139°39'1 0.5
2017-Mar-22 06:34N 35°27' E 139°39'0 0.2
2017-Mar-22 05:33N 35°27' E 139°39'0 0.2
2017-Mar-22 04:34N 35°27' E 139°39'1 0.8
2017-Mar-22 03:33N 35°27' E 139°40'1 0.8
2017-Mar-22 02:34N 35°27' E 139°39'0 0.0
2017-Mar-22 01:33N 35°27' E 139°39'0 0.0
2017-Mar-21 12:31N 35°27' E 139°39'3 2.7
2017-Mar-21 11:33N 35°28' E 139°42'3 2.6
2017-Mar-21 10:34N 35°27' E 139°39'1 0.5
2017-Mar-21 09:33N 35°27' E 139°39'0 0.0
2017-Mar-21 08:33N 35°27' E 139°39'1 0.5
2017-Mar-21 07:33N 35°27' E 139°39'1 0.5
2017-Mar-21 06:33N 35°27' E 139°39'0 0.1
2017-Mar-21 05:33N 35°27' E 139°39'0 0.1
2017-Mar-21 04:33N 35°27' E 139°39'1 0.5
2017-Mar-21 03:34N 35°27' E 139°39'1 0.5
2017-Mar-21 02:34N 35°27' E 139°39'0 0.0
2017-Mar-21 01:33N 35°27' E 139°39'0 0.0
2017-Mar-21 00:33N 35°27' E 139°39'1 0.1
2017-Mar-20 11:34N 35°28' E 139°39'  
Track history (hours):
 
Tides and Currents Weather Stations Pressure Air Temp Water Temp Dewpoint Dewpoint Depression Visibility Wind Speed Wind Dir Waves Ship Positions

Marine Rouge

Last reported at 2017-Mar-30 11:33 UTC. Time now 2017-Mar-30 14:37 UTC.
Position N 35°28' E 139°42'.

Length 52 m; draft 2.8 m.

Type: Passenger vessel. MMSI: 431000518.

Date/timePositionNaut miles runAvg speedWind from/ knotsBaromVisibWave heightAir tempDewpointWater temp
2017-Mar-30 11:33N 35°28' E 139°42'3 3.0
2017-Mar-30 10:33N 35°27' E 139°39'1 0.5
2017-Mar-30 09:33N 35°27' E 139°39'0 0.0
2017-Mar-30 08:33N 35°27' E 139°39'1 0.5
2017-Mar-30 07:33N 35°27' E 139°39'1 0.5
2017-Mar-30 06:33N 35°27' E 139°39'0 0.1
2017-Mar-30 05:34N 35°27' E 139°39'0 0.3
2017-Mar-30 04:33N 35°27' E 139°39'0 0.4
2017-Mar-30 03:33N 35°27' E 139°39'1 0.5
2017-Mar-30 02:34N 35°27' E 139°39'0 0.0
2017-Mar-30 01:33N 35°27' E 139°39'0 0.0
2017-Mar-30 00:33N 35°27' E 139°39'1 0.0
2017-Mar-29 12:34N 35°27' E 139°39'0 0.5
2017-Mar-29 11:33N 35°28' E 139°40'1 0.7
2017-Mar-29 10:33N 35°27' E 139°39'1 0.5
2017-Mar-29 09:33N 35°27' E 139°39'0 0.0
2017-Mar-29 08:33N 35°27' E 139°39'1 0.5
2017-Mar-29 07:34N 35°27' E 139°39'1 0.5
2017-Mar-29 06:33N 35°27' E 139°39'0 0.1
2017-Mar-29 05:34N 35°27' E 139°39'0 0.1
2017-Mar-29 04:33N 35°27' E 139°39'1 0.5
2017-Mar-29 03:34N 35°27' E 139°39'1 0.5
2017-Mar-29 02:33N 35°27' E 139°39'0 0.0
2017-Mar-29 01:33N 35°27' E 139°39'0 0.0
2017-Mar-29 00:33N 35°27' E 139°39'1 0.1
2017-Mar-28 11:33N 35°28' E 139°40'1 1.0
2017-Mar-28 10:33N 35°27' E 139°39'1 0.6
2017-Mar-28 09:33N 35°27' E 139°39'0 0.0
2017-Mar-28 08:33N 35°27' E 139°39'3 2.9
2017-Mar-28 07:33N 35°28' E 139°42'3 2.9
2017-Mar-28 06:33N 35°27' E 139°39'0 0.1
2017-Mar-28 05:34N 35°27' E 139°39'0 0.1
2017-Mar-28 04:33N 35°27' E 139°39'1 0.5
2017-Mar-28 03:34N 35°27' E 139°39'1 0.5
2017-Mar-28 02:33N 35°27' E 139°39'0 0.0
2017-Mar-28 01:33N 35°27' E 139°39'0 0.0
2017-Mar-28 00:33N 35°27' E 139°39'0 0.0
2017-Mar-27 12:33N 35°27' E 139°39'2 1.7
2017-Mar-27 11:33N 35°28' E 139°40'1 1.3
2017-Mar-27 10:33N 35°27' E 139°39'1 0.7
2017-Mar-27 09:33N 35°27' E 139°39'0 0.0
2017-Mar-27 08:34N 35°27' E 139°39'3 2.9
2017-Mar-27 07:33N 35°28' E 139°42'3 2.9
2017-Mar-27 06:34N 35°27' E 139°39'0 0.0
2017-Mar-27 05:33N 35°27' E 139°39'0 0.0
2017-Mar-27 04:33N 35°27' E 139°39'2 2.2
2017-Mar-27 03:33N 35°27' E 139°42'2 2.2
2017-Mar-27 02:33N 35°27' E 139°39'0 0.0
2017-Mar-27 01:33N 35°27' E 139°39'0 0.0
2017-Mar-27 00:33N 35°27' E 139°39'0 0.0
2017-Mar-26 12:33N 35°27' E 139°39'0 0.4
2017-Mar-26 11:33N 35°27' E 139°39'1 0.6
2017-Mar-26 10:34N 35°27' E 139°39'1 0.5
2017-Mar-26 09:33N 35°27' E 139°39'0 0.0
2017-Mar-26 08:33N 35°27' E 139°39'1 0.6
2017-Mar-26 07:33N 35°27' E 139°39'1 0.6
2017-Mar-26 06:33N 35°27' E 139°39'0 0.1
2017-Mar-26 05:33N 35°27' E 139°39'0 0.1
2017-Mar-26 04:33N 35°27' E 139°39'1 0.5
2017-Mar-26 03:34N 35°27' E 139°39'1 0.5
2017-Mar-26 02:33N 35°27' E 139°39'0 0.0
2017-Mar-26 01:33N 35°27' E 139°39'0 0.0
2017-Mar-26 00:33N 35°27' E 139°39'1 0.0
2017-Mar-25 12:34N 35°27' E 139°39'1 0.5
2017-Mar-25 11:33N 35°28' E 139°39'1 0.5
2017-Mar-25 10:33N 35°27' E 139°39'1 0.5
2017-Mar-25 09:33N 35°27' E 139°39'1 1.3
2017-Mar-25 08:33N 35°28' E 139°40'1 1.1
2017-Mar-25 07:33N 35°27' E 139°39'1 0.5
2017-Mar-25 06:33N 35°27' E 139°39'0 0.1
2017-Mar-25 05:33N 35°27' E 139°39'0 0.0
2017-Mar-25 04:34N 35°27' E 139°39'0 0.4
2017-Mar-25 03:33N 35°27' E 139°39'1 0.5
2017-Mar-25 02:33N 35°27' E 139°39'1 1.0
2017-Mar-25 01:33N 35°28' E 139°39'1 1.0
2017-Mar-25 00:33N 35°27' E 139°39'1 0.1
2017-Mar-24 11:33N 35°28' E 139°39'1 1.3
2017-Mar-24 10:33N 35°27' E 139°40'1 1.1
2017-Mar-24 09:33N 35°27' E 139°39'0 0.0
2017-Mar-24 08:33N 35°27' E 139°39'3 2.8
2017-Mar-24 07:33N 35°28' E 139°42'3 2.7
2017-Mar-24 06:33N 35°27' E 139°39'0 0.2
2017-Mar-24 05:34N 35°27' E 139°39'0 0.2
2017-Mar-24 04:33N 35°27' E 139°39'1 1.0
2017-Mar-24 03:33N 35°27' E 139°40'1 1.0
2017-Mar-24 02:33N 35°27' E 139°39'0 0.0
2017-Mar-24 01:33N 35°27' E 139°39'0 0.0
2017-Mar-24 00:33N 35°27' E 139°39'1 0.0
2017-Mar-23 12:30N 35°27' E 139°39'1 1.1
2017-Mar-23 11:33N 35°28' E 139°40'1 1.0
2017-Mar-23 10:33N 35°27' E 139°39'1 0.6
2017-Mar-23 09:33N 35°27' E 139°39'0 0.0
2017-Mar-23 08:33N 35°27' E 139°39'1 0.5
2017-Mar-23 07:33N 35°27' E 139°39'1 0.5
2017-Mar-23 06:33N 35°27' E 139°39'0 0.1
2017-Mar-23 05:33N 35°27' E 139°39'0 0.1
2017-Mar-23 04:33N 35°27' E 139°39'1 0.5
2017-Mar-23 03:33N 35°27' E 139°39'1 0.5
2017-Mar-23 02:33N 35°27' E 139°39'0 0.0
2017-Mar-23 01:33N 35°27' E 139°39'0 0.0
2017-Mar-23 00:33N 35°27' E 139°39'1 0.0
2017-Mar-22 12:34N 35°27' E 139°39'0 0.4
2017-Mar-22 11:34N 35°28' E 139°39'1 0.6
2017-Mar-22 10:34N 35°27' E 139°39'1 0.5
2017-Mar-22 09:34N 35°27' E 139°39'0 0.3
2017-Mar-22 08:33N 35°27' E 139°39'0 0.3
2017-Mar-22 07:34N 35°27' E 139°39'1 0.5
2017-Mar-22 06:34N 35°27' E 139°39'0 0.2
2017-Mar-22 05:33N 35°27' E 139°39'0 0.2
2017-Mar-22 04:34N 35°27' E 139°39'1 0.8
2017-Mar-22 03:33N 35°27' E 139°40'1 0.8
2017-Mar-22 02:34N 35°27' E 139°39'0 0.0
2017-Mar-22 01:33N 35°27' E 139°39'0 0.0
2017-Mar-21 12:31N 35°27' E 139°39'3 2.7
2017-Mar-21 11:33N 35°28' E 139°42'3 2.6
2017-Mar-21 10:34N 35°27' E 139°39'1 0.5
2017-Mar-21 09:33N 35°27' E 139°39'0 0.0
2017-Mar-21 08:33N 35°27' E 139°39'1 0.5
2017-Mar-21 07:33N 35°27' E 139°39'1 0.5
2017-Mar-21 06:33N 35°27' E 139°39'0 0.1
2017-Mar-21 05:33N 35°27' E 139°39'0 0.1
2017-Mar-21 04:33N 35°27' E 139°39'1 0.5
2017-Mar-21 03:34N 35°27' E 139°39'1 0.5
2017-Mar-21 02:34N 35°27' E 139°39'0 0.0
2017-Mar-21 01:33N 35°27' E 139°39'0 0.0
2017-Mar-21 00:33N 35°27' E 139°39'1 0.1
2017-Mar-20 11:34N 35°28' E 139°39'  

Dump ship's entire track history